createdAt,value
2023-11-06T00:01:16.735Z,58.00
2023-11-06T00:03:47.113Z,58.00
2023-11-06T00:06:17.472Z,57.90
2023-11-06T00:08:47.755Z,57.90
2023-11-06T00:11:20.999Z,57.90
2023-11-06T00:13:51.392Z,58.00
2023-11-06T00:16:28.563Z,58.20
2023-11-06T00:18:59.470Z,58.30
2023-11-06T00:21:30.488Z,58.40
2023-11-06T00:24:00.833Z,58.40
2023-11-06T00:26:31.093Z,58.20
2023-11-06T00:29:01.322Z,58.30
2023-11-06T00:31:31.694Z,58.20
2023-11-06T00:34:02.039Z,58.20
2023-11-06T00:36:32.246Z,58.20
2023-11-06T00:39:02.909Z,58.20
2023-11-06T00:41:33.137Z,58.10
2023-11-06T00:44:03.406Z,58.10
2023-11-06T00:46:34.246Z,58.10
2023-11-06T00:49:04.636Z,58.00
2023-11-06T00:51:34.956Z,57.90
2023-11-06T00:54:05.373Z,57.80
2023-11-06T00:56:35.607Z,57.80
2023-11-06T00:59:05.959Z,57.70
2023-11-06T01:01:41.300Z,57.70
2023-11-06T01:04:12.754Z,57.60
2023-11-06T01:06:43.163Z,57.50
2023-11-06T01:09:14.039Z,57.40
2023-11-06T01:11:44.365Z,57.40
2023-11-06T01:14:14.713Z,57.30
2023-11-06T01:16:45.135Z,57.40
2023-11-06T01:19:15.865Z,57.40
2023-11-06T01:21:46.158Z,57.30
2023-11-06T01:24:16.331Z,57.30
2023-11-06T01:26:46.653Z,57.20
2023-11-06T01:29:20.286Z,57.20
2023-11-06T01:31:50.582Z,57.10
2023-11-06T01:34:20.875Z,57.10
2023-11-06T01:36:51.196Z,57.20
2023-11-06T01:39:21.605Z,57.30
2023-11-06T01:41:52.124Z,57.30
2023-11-06T01:44:22.426Z,57.40
2023-11-06T01:46:52.959Z,57.40
2023-11-06T01:49:23.524Z,57.50
2023-11-06T01:51:55.538Z,57.50
2023-11-06T01:54:25.915Z,57.50
2023-11-06T01:56:57.774Z,57.60
2023-11-06T01:59:28.705Z,57.60
2023-11-06T02:02:07.861Z,57.60
2023-11-06T02:04:38.273Z,57.70
2023-11-06T02:07:08.661Z,57.80
2023-11-06T02:09:40.851Z,57.60
2023-11-06T02:12:12.340Z,57.60
2023-11-06T02:14:56.333Z,57.30
2023-11-06T02:17:29.744Z,57.30
2023-11-06T02:20:01.920Z,57.90
2023-11-06T02:22:33.001Z,57.10
2023-11-06T02:25:03.397Z,57.00
2023-11-06T02:27:33.710Z,56.90
2023-11-06T02:30:04.864Z,57.00
2023-11-06T02:32:35.182Z,57.00
2023-11-06T02:35:10.242Z,56.90
2023-11-06T02:37:40.606Z,56.80
2023-11-06T02:40:11.389Z,57.50
2023-11-06T02:42:41.698Z,56.90
2023-11-06T02:45:12.627Z,57.00
2023-11-06T02:47:42.906Z,56.90
2023-11-06T02:50:15.944Z,56.90
2023-11-06T02:52:46.280Z,57.10
2023-11-06T02:55:16.944Z,57.10
2023-11-06T02:57:47.272Z,57.20
2023-11-06T03:00:17.885Z,57.20
2023-11-06T03:02:48.291Z,57.00
2023-11-06T03:05:21.448Z,57.00
2023-11-06T03:07:51.886Z,57.10
2023-11-06T03:10:22.584Z,57.00
2023-11-06T03:12:52.907Z,57.10
2023-11-06T03:15:23.248Z,57.10
2023-11-06T03:17:53.682Z,57.20
2023-11-06T03:20:27.708Z,57.20
2023-11-06T03:23:00.707Z,57.10
2023-11-06T03:25:34.306Z,57.20
2023-11-06T03:28:04.739Z,57.20
2023-11-06T03:30:35.253Z,57.20
2023-11-06T03:33:06.118Z,57.30
2023-11-06T03:35:40.949Z,57.20
2023-11-06T03:38:17.015Z,57.20
2023-11-06T03:40:47.958Z,57.00
2023-11-06T03:43:18.614Z,56.90
2023-11-06T03:45:54.113Z,56.90
2023-11-06T03:48:25.035Z,56.80
2023-11-06T03:50:55.566Z,56.80
2023-11-06T03:53:26.214Z,56.60
2023-11-06T03:55:59.699Z,56.60
2023-11-06T03:58:30.083Z,56.60
2023-11-06T04:01:00.372Z,56.60
2023-11-06T04:03:33.997Z,56.50
2023-11-06T04:06:06.090Z,56.50
2023-11-06T04:08:36.930Z,56.70
2023-11-06T04:11:07.910Z,56.80
2023-11-06T04:13:41.988Z,56.80
2023-11-06T04:16:16.997Z,56.80
2023-11-06T04:18:47.357Z,57.00
2023-11-06T04:21:19.927Z,56.90
2023-11-06T04:23:50.409Z,57.00
2023-11-06T04:26:20.788Z,57.10
2023-11-06T04:28:51.205Z,57.10
2023-11-06T04:31:21.625Z,57.10
2023-11-06T04:33:54.801Z,57.10
2023-11-06T04:36:25.354Z,57.70
2023-11-06T04:38:55.692Z,57.10
2023-11-06T04:41:26.405Z,57.20
2023-11-06T04:43:59.490Z,57.20
2023-11-06T04:46:29.989Z,57.10
2023-11-06T04:49:03.369Z,57.00
2023-11-06T04:51:36.620Z,57.10
2023-11-06T04:54:07.270Z,57.00
2023-11-06T04:56:37.796Z,56.90
2023-11-06T04:59:08.158Z,56.80
2023-11-06T05:01:41.273Z,57.10
2023-11-06T05:04:14.632Z,57.30
2023-11-06T05:06:45.112Z,57.50
2023-11-06T05:09:16.291Z,57.70
2023-11-06T05:11:47.019Z,57.60
2023-11-06T05:14:17.354Z,57.90
2023-11-06T05:16:47.873Z,57.90
2023-11-06T05:19:18.209Z,58.00
2023-11-06T05:21:49.706Z,58.00
2023-11-06T05:24:20.012Z,58.10
2023-11-06T05:26:53.588Z,58.20
2023-11-06T05:29:23.926Z,58.20
2023-11-06T05:31:54.374Z,58.30
2023-11-06T05:34:24.800Z,58.40
2023-11-06T05:36:55.175Z,58.40
2023-11-06T05:39:28.125Z,58.50
2023-11-06T05:41:58.468Z,58.60
2023-11-06T05:44:28.794Z,58.60
2023-11-06T05:46:59.172Z,58.70
2023-11-06T05:49:29.530Z,58.70
2023-11-06T05:51:59.882Z,58.70
2023-11-06T05:54:30.269Z,58.80
2023-11-06T05:57:00.681Z,58.80
2023-11-06T05:59:31.082Z,58.90
2023-11-06T06:02:04.732Z,58.90
2023-11-06T06:04:35.201Z,59.00
2023-11-06T06:07:06.082Z,58.90
2023-11-06T06:09:36.714Z,58.90
2023-11-06T06:12:07.583Z,58.90
2023-11-06T06:14:38.774Z,59.00
2023-11-06T06:17:09.183Z,58.90
2023-11-06T06:19:41.043Z,58.90
2023-11-06T06:22:12.053Z,58.80
2023-11-06T06:24:43.315Z,58.70
2023-11-06T06:27:13.879Z,58.60
2023-11-06T06:29:44.946Z,58.40
2023-11-06T06:32:17.507Z,58.20
2023-11-06T06:34:48.690Z,58.20
2023-11-06T06:37:19.122Z,58.00
2023-11-06T06:39:52.326Z,57.90
2023-11-06T06:42:22.653Z,57.90
2023-11-06T06:44:52.931Z,57.90
2023-11-06T06:47:23.573Z,57.90
2023-11-06T06:49:54.378Z,57.80
2023-11-06T06:52:24.889Z,57.70
2023-11-06T06:54:55.546Z,57.70
2023-11-06T06:57:26.170Z,57.60
2023-11-06T06:59:56.430Z,57.60
2023-11-06T07:02:29.578Z,57.50
2023-11-06T07:04:59.977Z,57.50
2023-11-06T07:07:30.666Z,57.40
2023-11-06T07:10:00.926Z,57.30
2023-11-06T07:12:31.262Z,57.20
2023-11-06T07:15:01.835Z,57.10
2023-11-06T07:17:32.486Z,57.00
2023-11-06T07:20:02.937Z,57.00
2023-11-06T07:22:33.992Z,56.90
2023-11-06T07:25:04.313Z,56.90
2023-11-06T07:27:34.631Z,56.90
2023-11-06T07:30:05.237Z,56.80
2023-11-06T07:32:35.953Z,56.80
2023-11-06T07:35:06.763Z,56.70
2023-11-06T07:37:37.716Z,56.80
2023-11-06T07:40:09.605Z,56.50
2023-11-06T07:42:40.404Z,56.50
2023-11-06T07:45:11.370Z,56.50
2023-11-06T07:47:42.841Z,56.30
2023-11-06T07:50:13.758Z,56.20
2023-11-06T07:52:44.868Z,56.30
2023-11-06T07:55:15.211Z,56.30
2023-11-06T07:57:45.644Z,56.50
2023-11-06T08:00:16.644Z,56.60
2023-11-06T08:02:47.256Z,56.60
2023-11-06T08:05:18.112Z,56.60
2023-11-06T08:07:48.495Z,56.70
2023-11-06T08:10:19.807Z,56.60
2023-11-06T08:12:50.860Z,56.50
2023-11-06T08:15:21.764Z,56.40
2023-11-06T08:17:52.928Z,56.30
2023-11-06T08:20:23.633Z,56.30
2023-11-06T08:22:54.271Z,56.30
2023-11-06T08:25:27.100Z,56.30
2023-11-06T08:28:00.421Z,56.20
2023-11-06T08:30:30.663Z,56.20
2023-11-06T08:33:01.990Z,56.60
2023-11-06T08:35:32.386Z,56.80
2023-11-06T08:38:09.042Z,56.80
2023-11-06T08:40:40.379Z,56.90
2023-11-06T08:43:13.104Z,56.80
2023-11-06T08:45:44.637Z,56.70
2023-11-06T08:48:15.924Z,56.70
2023-11-06T08:50:46.277Z,56.70
2023-11-06T08:53:16.650Z,56.60
2023-11-06T08:55:47.042Z,56.50
2023-11-06T08:58:20.026Z,56.50
2023-11-06T09:00:53.094Z,56.50
2023-11-06T09:03:23.709Z,56.50
2023-11-06T09:05:54.990Z,56.50
2023-11-06T09:08:25.531Z,56.40
2023-11-06T09:10:55.895Z,56.40
2023-11-06T09:13:26.345Z,56.20
2023-11-06T09:15:56.784Z,56.20
2023-11-06T09:18:27.296Z,56.20
2023-11-06T09:20:57.713Z,56.20
2023-11-06T09:23:28.106Z,56.10
2023-11-06T09:25:58.442Z,56.00
2023-11-06T09:28:28.789Z,56.00
2023-11-06T09:30:59.080Z,56.00
2023-11-06T09:33:31.951Z,55.90
2023-11-06T09:36:02.812Z,55.90
2023-11-06T09:38:33.100Z,55.90
2023-11-06T09:41:03.545Z,55.90
2023-11-06T09:43:34.097Z,56.00
2023-11-06T09:46:11.342Z,56.00
2023-11-06T09:48:43.434Z,56.00
2023-11-06T09:51:18.188Z,56.00
2023-11-06T09:53:53.525Z,56.00
2023-11-06T09:56:23.981Z,55.90
2023-11-06T09:58:54.364Z,55.90
2023-11-06T10:01:30.831Z,56.00
2023-11-06T10:04:01.298Z,55.90
2023-11-06T10:06:31.724Z,55.90
2023-11-06T10:09:23.416Z,56.00
2023-11-06T10:11:55.121Z,56.00
2023-11-06T10:14:40.427Z,56.10
2023-11-06T10:17:11.128Z,56.10
2023-11-06T10:19:41.377Z,56.20
2023-11-06T10:22:18.725Z,56.10
2023-11-06T10:24:53.778Z,56.10
2023-11-06T10:27:33.594Z,56.20
2023-11-06T10:30:13.490Z,56.10
2023-11-06T10:32:43.880Z,56.20
2023-11-06T10:35:21.409Z,56.20
2023-11-06T10:37:52.015Z,56.30
2023-11-06T10:40:36.101Z,56.20
2023-11-06T10:43:06.418Z,56.10
2023-11-06T10:45:41.888Z,56.20
2023-11-06T10:48:18.539Z,56.20
2023-11-06T10:50:52.147Z,56.20
2023-11-06T10:53:24.082Z,56.20
2023-11-06T10:55:55.638Z,56.30
2023-11-06T10:58:27.221Z,56.20
2023-11-06T11:01:01.277Z,56.20
2023-11-06T11:03:34.576Z,56.20
2023-11-06T11:06:09.276Z,56.30
2023-11-06T11:08:39.762Z,56.30
2023-11-06T11:11:12.254Z,56.40
2023-11-06T11:13:46.020Z,56.40
2023-11-06T11:16:53.419Z,56.50
2023-11-06T11:19:34.758Z,56.40
2023-11-06T11:22:10.031Z,56.40
2023-11-06T11:24:52.742Z,56.50
2023-11-06T11:27:28.973Z,56.50
2023-11-06T11:30:10.320Z,56.50
2023-11-06T11:32:50.799Z,56.50
2023-11-06T11:35:25.883Z,56.50
2023-11-06T11:38:06.747Z,56.50
2023-11-06T11:40:46.300Z,56.50
2023-11-06T11:43:37.930Z,56.50
2023-11-06T11:46:50.368Z,56.50
2023-11-06T11:49:48.568Z,56.50
2023-11-06T11:52:18.878Z,56.50
2023-11-06T11:54:49.316Z,56.60
2023-11-06T11:57:19.860Z,56.60
2023-11-06T11:59:55.583Z,56.60
2023-11-06T12:02:36.130Z,56.50
2023-11-06T12:05:19.944Z,56.60
2023-11-06T12:07:50.348Z,56.50
2023-11-06T12:10:30.325Z,56.60
2023-11-06T12:13:01.785Z,56.60
2023-11-06T12:15:35.709Z,56.60
2023-11-06T12:18:14.437Z,56.50
2023-11-06T12:20:46.509Z,56.50
2023-11-06T12:23:17.148Z,56.60
2023-11-06T12:25:47.502Z,56.60
2023-11-06T12:28:18.201Z,56.60
2023-11-06T12:30:56.025Z,56.60
2023-11-06T12:33:26.941Z,56.60
2023-11-06T12:36:00.006Z,56.60
2023-11-06T12:38:37.974Z,56.60
2023-11-06T12:41:10.057Z,56.60
2023-11-06T12:43:41.778Z,56.60
2023-11-06T12:46:12.558Z,56.70
2023-11-06T12:48:43.807Z,56.60
2023-11-06T12:51:16.885Z,56.70
2023-11-06T12:53:52.030Z,56.70
2023-11-06T12:56:24.055Z,56.70
2023-11-06T12:58:57.679Z,56.70
2023-11-06T13:01:32.132Z,56.70
2023-11-06T13:04:09.360Z,56.70
2023-11-06T13:06:40.022Z,56.70
2023-11-06T13:09:16.547Z,56.70
2023-11-06T13:11:47.908Z,56.70
2023-11-06T13:14:18.404Z,56.70
2023-11-06T13:16:48.749Z,56.70
2023-11-06T13:19:21.192Z,56.70
2023-11-06T13:21:53.871Z,56.60
2023-11-06T13:24:33.043Z,56.70
2023-11-06T13:27:03.376Z,56.60
2023-11-06T13:29:34.195Z,56.60
2023-11-06T13:32:06.698Z,56.70
2023-11-06T13:34:36.939Z,56.70
2023-11-06T13:37:09.879Z,56.70
2023-11-06T13:39:41.584Z,56.70
2023-11-06T13:42:13.947Z,56.70
2023-11-06T13:44:46.984Z,56.70
2023-11-06T13:47:17.229Z,56.60
2023-11-06T13:49:52.488Z,56.70
2023-11-06T13:52:27.126Z,56.60
2023-11-06T13:54:57.450Z,56.70
2023-11-06T13:57:31.214Z,56.70
2023-11-06T14:00:01.618Z,56.70
2023-11-06T14:02:32.886Z,56.70
2023-11-06T14:05:03.314Z,56.70
2023-11-06T14:07:33.630Z,56.70
2023-11-06T14:10:19.341Z,56.70
2023-11-06T14:12:49.870Z,56.70
2023-11-06T14:15:20.339Z,56.70
2023-11-06T14:17:50.670Z,56.70
2023-11-06T14:20:20.968Z,56.70
2023-11-06T14:22:51.694Z,56.70
2023-11-06T14:25:27.392Z,56.70
2023-11-06T14:27:57.767Z,56.70
2023-11-06T14:30:30.337Z,56.70
2023-11-06T14:33:00.913Z,56.70
2023-11-06T14:35:31.545Z,56.80
2023-11-06T14:38:02.643Z,56.90
2023-11-06T14:40:33.895Z,57.00
2023-11-06T14:43:04.282Z,57.00
2023-11-06T14:45:35.998Z,57.00
2023-11-06T14:48:06.569Z,57.10
2023-11-06T14:50:37.859Z,57.10
2023-11-06T14:53:12.071Z,57.10
2023-11-06T14:55:42.840Z,57.10
2023-11-06T14:58:13.181Z,57.10
2023-11-06T15:00:44.186Z,57.10
2023-11-06T15:03:18.973Z,57.10
2023-11-06T15:05:49.942Z,57.10
2023-11-06T15:08:23.284Z,57.10
2023-11-06T15:10:53.892Z,57.00
2023-11-06T15:13:24.140Z,57.10
2023-11-06T15:15:57.112Z,57.10
2023-11-06T15:18:27.694Z,57.10
2023-11-06T15:20:59.758Z,57.10
2023-11-06T15:23:31.119Z,57.10
2023-11-06T15:26:01.618Z,57.10
2023-11-06T15:28:31.917Z,57.10
2023-11-06T15:31:02.589Z,57.20
2023-11-06T15:33:33.227Z,57.20
2023-11-06T15:36:03.766Z,57.10
2023-11-06T15:38:34.869Z,57.10
2023-11-06T15:41:14.013Z,57.10
2023-11-06T15:43:44.805Z,57.20
2023-11-06T15:46:24.511Z,57.20
2023-11-06T15:49:01.476Z,57.20
2023-11-06T15:51:34.172Z,57.20
2023-11-06T15:54:04.501Z,57.30
2023-11-06T15:56:37.862Z,57.30
2023-11-06T15:59:08.497Z,57.30
2023-11-06T16:01:41.745Z,57.30
2023-11-06T16:04:12.033Z,57.30
2023-11-06T16:06:42.415Z,57.30
2023-11-06T16:09:12.802Z,57.90
2023-11-06T16:11:43.212Z,57.30
2023-11-06T16:14:13.859Z,57.30
2023-11-06T16:16:44.222Z,57.30
2023-11-06T16:19:14.765Z,57.40
2023-11-06T16:21:45.163Z,57.40
2023-11-06T16:24:15.518Z,57.40
2023-11-06T16:26:46.575Z,57.50
2023-11-06T16:29:17.220Z,57.50
2023-11-06T16:31:51.247Z,57.50
2023-11-06T16:34:30.628Z,57.40
2023-11-06T16:37:06.312Z,57.50
2023-11-06T16:39:36.518Z,57.40
2023-11-06T16:42:07.204Z,57.50
2023-11-06T16:44:37.517Z,57.40
2023-11-06T16:47:08.299Z,57.40
2023-11-06T16:49:41.860Z,57.50
2023-11-06T16:52:13.452Z,57.50
2023-11-06T16:54:44.004Z,57.50
2023-11-06T16:57:14.443Z,57.50
2023-11-06T16:59:44.925Z,57.40
2023-11-06T17:02:15.256Z,57.50
2023-11-06T17:04:46.284Z,57.40
2023-11-06T17:07:16.787Z,57.40
2023-11-06T17:09:49.370Z,57.50
2023-11-06T17:12:20.063Z,57.50
2023-11-06T17:14:50.436Z,57.50
2023-11-06T17:17:22.942Z,57.50
2023-11-06T17:19:53.312Z,57.50
2023-11-06T17:22:24.627Z,57.50
2023-11-06T17:24:58.529Z,57.50
2023-11-06T17:27:29.419Z,57.50
2023-11-06T17:29:59.945Z,57.50
2023-11-06T17:32:30.482Z,57.50
2023-11-06T17:35:00.794Z,57.50
2023-11-06T17:37:31.206Z,57.60
2023-11-06T17:40:01.968Z,57.50
2023-11-06T17:42:32.440Z,57.50
2023-11-06T17:45:06.103Z,57.60
2023-11-06T17:47:37.257Z,57.60
2023-11-06T17:50:08.257Z,57.60
2023-11-06T17:52:38.760Z,57.60
2023-11-06T17:55:09.398Z,57.60
2023-11-06T17:57:42.970Z,57.60
2023-11-06T18:00:16.478Z,57.60
2023-11-06T18:02:47.294Z,57.70
2023-11-06T18:05:18.111Z,57.60
2023-11-06T18:07:49.782Z,57.60
2023-11-06T18:10:20.386Z,57.60
2023-11-06T18:12:50.856Z,57.60
2023-11-06T18:15:21.346Z,57.60
2023-11-06T18:17:51.864Z,57.60
2023-11-06T18:20:28.386Z,57.60
2023-11-06T18:22:58.796Z,57.70
2023-11-06T18:25:29.918Z,57.60
2023-11-06T18:28:00.500Z,57.60
2023-11-06T18:30:30.813Z,57.60
2023-11-06T18:33:01.688Z,57.50
2023-11-06T18:35:32.147Z,57.50
2023-11-06T18:38:06.192Z,57.50
2023-11-06T18:40:37.331Z,57.40
2023-11-06T18:43:07.805Z,57.40
2023-11-06T18:45:43.817Z,57.40
2023-11-06T18:48:14.211Z,57.40
2023-11-06T18:50:45.355Z,57.40
2023-11-06T18:53:15.699Z,57.30
2023-11-06T18:55:46.438Z,57.30
2023-11-06T18:58:17.060Z,57.30
2023-11-06T19:00:50.889Z,57.30
2023-11-06T19:03:21.687Z,57.30
2023-11-06T19:05:52.202Z,57.30
2023-11-06T19:08:22.718Z,57.30
2023-11-06T19:10:55.024Z,57.30
2023-11-06T19:13:26.337Z,57.30
2023-11-06T19:15:58.627Z,57.30
2023-11-06T19:18:29.049Z,57.20
2023-11-06T19:20:59.878Z,57.20
2023-11-06T19:23:30.168Z,57.20
2023-11-06T19:26:03.153Z,57.20
2023-11-06T19:28:33.465Z,57.20
2023-11-06T19:31:05.951Z,57.10
2023-11-06T19:33:37.085Z,57.10
2023-11-06T19:36:09.147Z,57.10
2023-11-06T19:38:42.205Z,57.10
2023-11-06T19:41:12.788Z,57.10
2023-11-06T19:43:46.988Z,57.10
2023-11-06T19:46:17.353Z,57.10
2023-11-06T19:48:48.292Z,57.20
2023-11-06T19:51:21.461Z,57.40
2023-11-06T19:53:51.985Z,57.40
2023-11-06T19:56:22.569Z,57.50
2023-11-06T19:58:53.053Z,57.60
2023-11-06T20:01:23.453Z,57.60
2023-11-06T20:03:54.088Z,57.70
2023-11-06T20:06:24.921Z,57.80
2023-11-06T20:08:57.716Z,57.80
2023-11-06T20:11:28.115Z,57.90
2023-11-06T20:14:00.168Z,57.80
2023-11-06T20:16:30.445Z,57.90
2023-11-06T20:19:00.870Z,57.90
2023-11-06T20:21:34.683Z,57.90
2023-11-06T20:24:05.180Z,58.00
2023-11-06T20:26:36.320Z,58.00
2023-11-06T20:29:08.440Z,58.10
2023-11-06T20:31:41.920Z,58.10
2023-11-06T20:34:12.386Z,58.20
2023-11-06T20:36:48.219Z,58.20
2023-11-06T20:39:18.623Z,58.20
2023-11-06T20:41:52.050Z,58.20
2023-11-06T20:44:22.953Z,58.30
2023-11-06T20:46:53.581Z,58.30
2023-11-06T20:49:24.228Z,58.30
2023-11-06T20:51:54.741Z,58.30
2023-11-06T20:54:25.488Z,58.20
2023-11-06T20:56:56.287Z,58.30
2023-11-06T20:59:26.919Z,58.30
2023-11-06T21:01:57.653Z,58.40
2023-11-06T21:04:28.204Z,58.30
2023-11-06T21:06:58.582Z,58.40
2023-11-06T21:09:29.158Z,58.30
2023-11-06T21:12:02.749Z,59.00
2023-11-06T21:14:34.305Z,58.40
2023-11-06T21:17:04.763Z,58.40
2023-11-06T21:19:35.076Z,58.40
2023-11-06T21:22:05.549Z,58.40
2023-11-06T21:24:35.837Z,58.40
2023-11-06T21:27:06.725Z,58.40
2023-11-06T21:29:37.107Z,58.40
2023-11-06T21:32:07.637Z,58.40
2023-11-06T21:34:37.943Z,58.40
2023-11-06T21:37:08.798Z,58.50
2023-11-06T21:39:41.965Z,58.50
2023-11-06T21:42:13.739Z,58.50
2023-11-06T21:44:44.203Z,58.50
2023-11-06T21:47:16.374Z,58.40
2023-11-06T21:49:47.340Z,58.40
2023-11-06T21:52:22.177Z,58.40
2023-11-06T21:54:55.550Z,58.50
2023-11-06T21:57:29.085Z,58.40
2023-11-06T21:59:59.574Z,58.40
2023-11-06T22:02:31.024Z,58.40
2023-11-06T22:05:10.074Z,59.00
2023-11-06T22:07:48.184Z,58.30
2023-11-06T22:10:25.422Z,58.20
2023-11-06T22:12:59.286Z,58.20
2023-11-06T22:15:32.450Z,58.20
2023-11-06T22:18:05.709Z,58.20
2023-11-06T22:20:38.200Z,58.40
2023-11-06T22:23:08.579Z,58.20
2023-11-06T22:25:42.031Z,58.60
2023-11-06T22:28:12.310Z,58.40
2023-11-06T22:30:42.662Z,58.20
2023-11-06T22:33:19.031Z,58.40
2023-11-06T22:35:49.433Z,58.90
2023-11-06T22:38:27.521Z,58.90
2023-11-06T22:40:57.780Z,59.00
2023-11-06T22:43:30.819Z,59.10
2023-11-06T22:46:01.368Z,59.00
2023-11-06T22:48:32.004Z,59.10
2023-11-06T22:51:03.153Z,59.30
2023-11-06T22:53:33.766Z,59.20
2023-11-06T22:56:04.237Z,59.20
2023-11-06T22:58:35.878Z,59.30
2023-11-06T23:01:06.254Z,59.30
2023-11-06T23:03:37.051Z,59.30
2023-11-06T23:06:08.322Z,59.30
2023-11-06T23:08:38.679Z,59.30
2023-11-06T23:11:09.436Z,59.30
2023-11-06T23:13:42.332Z,59.30
2023-11-06T23:16:12.724Z,59.30
2023-11-06T23:18:45.051Z,59.30
2023-11-06T23:21:15.939Z,59.30
2023-11-06T23:23:49.585Z,59.30
2023-11-06T23:26:21.249Z,59.90
2023-11-06T23:28:52.156Z,59.20
2023-11-06T23:31:23.507Z,59.50
2023-11-06T23:33:53.972Z,59.90
2023-11-06T23:36:24.377Z,61.40
2023-11-06T23:38:54.748Z,62.50
2023-11-06T23:41:32.643Z,63.20
2023-11-06T23:44:10.919Z,64.50
2023-11-06T23:46:42.250Z,65.40
2023-11-06T23:49:12.695Z,65.70
2023-11-06T23:51:44.216Z,65.70
2023-11-06T23:54:17.308Z,66.00
2023-11-06T23:56:47.804Z,65.60
2023-11-06T23:59:21.029Z,65.50
